createdAt,value
2023-01-15T00:01:21.279Z,98826.63
2023-01-15T00:03:50.131Z,98821.53
2023-01-15T00:06:19.010Z,98829.22
2023-01-15T00:08:47.253Z,98834.56
2023-01-15T00:11:16.380Z,98843.63
2023-01-15T00:13:44.666Z,98838.84
2023-01-15T00:16:16.089Z,98844.50
2023-01-15T00:18:44.972Z,98832.66
2023-01-15T00:21:14.113Z,98831.06
2023-01-15T00:23:59.979Z,98821.72
2023-01-15T00:26:48.211Z,98816.53
2023-01-15T00:29:17.219Z,98810.00
2023-01-15T00:31:56.538Z,98781.87
2023-01-15T00:34:25.373Z,98783.00
2023-01-15T00:36:54.079Z,98799.94
2023-01-15T00:39:24.190Z,98792.00
2023-01-15T00:41:55.846Z,98795.97
2023-01-15T00:44:24.376Z,98782.37
2023-01-15T00:46:53.962Z,98768.09
2023-01-15T00:49:22.254Z,98764.66
2023-01-15T00:51:51.161Z,98755.81
2023-01-15T00:54:19.406Z,98744.09
2023-01-15T00:56:47.757Z,98750.87
2023-01-15T00:59:16.040Z,98759.56
2023-01-15T01:01:44.469Z,98756.72
2023-01-15T01:04:14.051Z,98758.72
2023-01-15T01:06:42.728Z,98760.38
2023-01-15T01:09:13.772Z,98769.94
2023-01-15T01:11:41.987Z,98756.72
2023-01-15T01:14:12.829Z,98753.06
2023-01-15T01:16:44.598Z,98747.72
2023-01-15T01:19:17.346Z,98756.44
2023-01-15T01:21:47.812Z,98769.72
2023-01-15T01:24:18.191Z,98760.75
2023-01-15T01:26:47.578Z,98767.63
2023-01-15T01:29:17.584Z,98770.47
2023-01-15T01:31:46.428Z,98757.13
2023-01-15T01:34:16.050Z,98761.47
2023-01-15T01:36:45.566Z,98753.31
2023-01-15T01:39:19.915Z,98751.53
2023-01-15T01:41:49.587Z,98743.19
2023-01-15T01:44:55.316Z,98748.88
2023-01-15T01:47:27.187Z,98743.53
2023-01-15T01:50:04.292Z,98730.47
2023-01-15T01:52:38.302Z,98725.81
2023-01-15T01:55:07.697Z,98722.19
2023-01-15T01:57:36.401Z,98720.31
2023-01-15T02:00:06.885Z,98712.81
2023-01-15T02:02:43.380Z,98716.53
2023-01-15T02:05:17.961Z,98709.84
2023-01-15T02:07:47.007Z,98703.69
2023-01-15T02:10:17.005Z,98712.84
2023-01-15T02:12:50.740Z,98699.69
2023-01-15T02:15:23.404Z,98683.84
2023-01-15T02:17:57.118Z,98682.34
2023-01-15T02:20:33.496Z,98692.69
2023-01-15T02:23:43.921Z,98697.22
2023-01-15T02:26:33.304Z,98686.56
2023-01-15T02:29:05.141Z,98684.50
2023-01-15T02:31:38.505Z,98673.88
2023-01-15T02:34:11.630Z,98674.03
2023-01-15T02:36:43.059Z,98676.50
2023-01-15T02:39:16.117Z,98665.72
2023-01-15T02:41:48.240Z,98675.03
2023-01-15T02:44:20.899Z,98669.53
2023-01-15T02:46:50.201Z,98668.25
2023-01-15T02:49:21.493Z,98665.56
2023-01-15T02:51:57.031Z,98674.56
2023-01-15T02:54:29.618Z,98674.87
2023-01-15T02:57:01.207Z,98678.25
2023-01-15T02:59:37.335Z,98681.91
2023-01-15T03:02:12.178Z,98672.75
2023-01-15T03:04:44.831Z,98668.06
2023-01-15T03:07:18.664Z,98673.41
2023-01-15T03:09:47.910Z,98671.25
2023-01-15T03:12:20.949Z,98668.91
2023-01-15T03:14:58.764Z,98670.09
2023-01-15T03:17:35.106Z,98666.59
2023-01-15T03:20:10.327Z,98660.44
2023-01-15T03:22:43.099Z,98657.72
2023-01-15T03:25:17.951Z,98652.41
2023-01-15T03:27:46.860Z,98658.72
2023-01-15T03:30:18.668Z,98660.41
2023-01-15T03:32:48.029Z,98662.25
2023-01-15T03:35:43.440Z,98673.91
2023-01-15T03:38:13.263Z,98672.56
2023-01-15T03:40:51.570Z,98672.38
2023-01-15T03:43:44.505Z,98680.91
2023-01-15T03:46:34.942Z,98702.25
2023-01-15T03:49:12.264Z,98718.47
2023-01-15T03:51:49.933Z,98706.53
2023-01-15T03:54:25.825Z,98716.16
2023-01-15T03:56:59.395Z,98713.03
2023-01-15T03:59:33.484Z,98706.00
2023-01-15T04:02:05.016Z,98719.47
2023-01-15T04:04:34.952Z,98707.81
2023-01-15T04:07:03.923Z,98714.59
2023-01-15T04:09:39.261Z,98766.50
2023-01-15T04:12:08.245Z,98767.31
2023-01-15T04:14:38.726Z,98753.53
2023-01-15T04:17:08.605Z,98780.59
2023-01-15T04:19:36.830Z,98786.31
2023-01-15T04:22:05.304Z,98798.06
2023-01-15T04:24:33.392Z,98808.00
2023-01-15T04:27:01.611Z,98810.50
2023-01-15T04:29:29.611Z,98822.38
2023-01-15T04:31:58.256Z,98822.03
2023-01-15T04:34:28.927Z,98820.91
2023-01-15T04:36:57.447Z,98809.59
2023-01-15T04:39:25.683Z,98806.00
2023-01-15T04:42:11.472Z,98805.84
2023-01-15T04:44:40.374Z,98807.81
2023-01-15T04:47:08.569Z,98818.28
2023-01-15T04:49:38.085Z,98814.38
2023-01-15T04:52:06.307Z,98821.34
2023-01-15T04:54:34.524Z,98829.16
2023-01-15T04:57:02.506Z,98830.28
2023-01-15T04:59:30.461Z,98833.47
2023-01-15T05:02:04.613Z,98822.69
2023-01-15T05:04:35.142Z,98821.88
2023-01-15T05:07:06.128Z,98831.62
2023-01-15T05:09:34.408Z,98842.81
2023-01-15T05:12:02.594Z,98844.19
2023-01-15T05:14:31.115Z,98844.31
2023-01-15T05:16:59.495Z,98841.91
2023-01-15T05:19:27.489Z,98842.97
2023-01-15T05:21:55.670Z,98839.28
2023-01-15T05:24:25.365Z,98832.69
2023-01-15T05:26:53.763Z,98847.78
2023-01-15T05:29:22.291Z,98857.78
2023-01-15T05:31:50.339Z,98860.75
2023-01-15T05:34:18.377Z,98858.37
2023-01-15T05:36:46.731Z,98866.59
2023-01-15T05:39:14.718Z,98857.44
2023-01-15T05:41:54.021Z,98864.87
2023-01-15T05:44:25.241Z,98866.59
2023-01-15T05:46:55.566Z,98871.63
2023-01-15T05:49:25.604Z,98860.63
2023-01-15T05:51:54.872Z,98866.06
2023-01-15T05:54:25.145Z,98867.28
2023-01-15T05:56:55.026Z,98877.19
2023-01-15T05:59:25.482Z,98879.63
2023-01-15T06:01:54.687Z,98876.94
2023-01-15T06:04:25.140Z,98877.41
2023-01-15T06:06:54.514Z,98873.81
2023-01-15T06:09:23.152Z,98875.25
2023-01-15T06:11:51.599Z,98890.50
2023-01-15T06:14:21.191Z,98882.25
2023-01-15T06:16:49.359Z,98888.06
2023-01-15T06:19:17.441Z,98878.25
2023-01-15T06:21:45.486Z,98882.09
2023-01-15T06:24:16.499Z,98880.75
2023-01-15T06:26:44.573Z,98881.63
2023-01-15T06:29:13.438Z,98887.63
2023-01-15T06:31:43.464Z,98887.75
2023-01-15T06:34:11.428Z,98896.44
2023-01-15T06:36:39.406Z,98897.44
2023-01-15T06:39:07.815Z,98883.19
2023-01-15T06:41:53.509Z,98884.59
2023-01-15T06:44:39.788Z,98901.22
2023-01-15T06:47:24.949Z,98895.66
2023-01-15T06:49:55.579Z,98909.63
2023-01-15T06:52:24.412Z,98907.66
2023-01-15T06:54:53.270Z,98904.63
2023-01-15T06:57:21.719Z,98900.03
2023-01-15T06:59:50.475Z,98916.31
2023-01-15T07:02:19.984Z,98913.69
2023-01-15T07:04:49.171Z,98909.66
2023-01-15T07:07:17.712Z,98916.59
2023-01-15T07:09:45.741Z,98917.13
2023-01-15T07:12:14.108Z,98915.47
2023-01-15T07:14:42.387Z,98920.06
2023-01-15T07:17:10.463Z,98920.19
2023-01-15T07:19:40.226Z,98916.25
2023-01-15T07:22:10.077Z,98923.88
2023-01-15T07:24:38.242Z,98926.22
2023-01-15T07:27:06.944Z,98925.09
2023-01-15T07:29:34.866Z,98932.41
2023-01-15T07:32:03.268Z,98922.91
2023-01-15T07:34:31.452Z,98920.13
2023-01-15T07:37:00.664Z,98930.31
2023-01-15T07:39:31.576Z,98915.78
2023-01-15T07:42:17.236Z,98899.34
2023-01-15T07:45:03.918Z,98910.03
2023-01-15T07:47:49.837Z,98910.34
2023-01-15T07:50:21.972Z,98909.47
2023-01-15T07:52:53.375Z,98905.41
2023-01-15T07:55:22.537Z,98916.00
2023-01-15T07:57:50.554Z,98914.56
2023-01-15T08:00:22.785Z,98917.38
2023-01-15T08:02:51.193Z,98920.44
2023-01-15T08:05:19.905Z,98928.88
2023-01-15T08:07:49.113Z,98935.56
2023-01-15T08:10:19.681Z,98929.84
2023-01-15T08:13:08.224Z,98929.97
2023-01-15T08:15:40.633Z,98935.78
2023-01-15T08:18:08.586Z,98943.75
2023-01-15T08:20:37.252Z,98949.37
2023-01-15T08:23:05.154Z,98949.06
2023-01-15T08:25:34.560Z,98947.97
2023-01-15T08:28:03.535Z,98945.09
2023-01-15T08:30:31.868Z,98946.41
2023-01-15T08:33:03.616Z,98954.50
2023-01-15T08:35:32.260Z,98948.81
2023-01-15T08:38:00.284Z,98957.00
2023-01-15T08:40:28.315Z,98959.53
2023-01-15T08:42:57.833Z,98954.06
2023-01-15T08:45:25.927Z,98955.88
2023-01-15T08:47:55.891Z,98955.13
2023-01-15T08:50:24.267Z,98956.94
2023-01-15T08:52:52.379Z,98964.59
2023-01-15T08:55:20.560Z,98958.25
2023-01-15T08:57:49.595Z,98961.16
2023-01-15T09:00:20.213Z,98957.63
2023-01-15T09:02:50.149Z,98950.44
2023-01-15T09:05:18.944Z,98951.28
2023-01-15T09:07:47.138Z,98957.69
2023-01-15T09:10:15.717Z,98978.94
2023-01-15T09:12:43.769Z,98975.34
2023-01-15T09:15:12.483Z,98982.88
2023-01-15T09:17:42.144Z,98983.09
2023-01-15T09:20:13.531Z,98977.25
2023-01-15T09:22:41.965Z,98979.78
2023-01-15T09:25:10.878Z,98988.94
2023-01-15T09:27:39.431Z,98988.81
2023-01-15T09:30:09.713Z,98999.38
2023-01-15T09:32:38.099Z,98996.25
2023-01-15T09:35:09.256Z,98992.06
2023-01-15T09:37:37.877Z,99006.34
2023-01-15T09:40:09.219Z,99000.44
2023-01-15T09:42:46.666Z,99006.69
2023-01-15T09:45:23.388Z,99014.50
2023-01-15T09:48:13.072Z,99027.53
2023-01-15T09:50:56.905Z,99006.56
2023-01-15T09:53:37.805Z,99012.16
2023-01-15T09:56:06.499Z,99000.38
2023-01-15T09:58:37.529Z,99005.25
2023-01-15T10:01:06.484Z,98991.75
2023-01-15T10:03:43.545Z,98998.44
2023-01-15T10:06:21.068Z,99003.34
2023-01-15T10:08:50.852Z,99019.78
2023-01-15T10:11:49.365Z,99012.50
2023-01-15T10:14:32.748Z,99009.84
2023-01-15T10:17:01.593Z,99030.28
2023-01-15T10:19:43.947Z,99028.34
2023-01-15T10:22:26.384Z,99029.00
2023-01-15T10:24:58.222Z,99034.50
2023-01-15T10:27:33.330Z,99039.38
2023-01-15T10:30:07.857Z,99038.06
2023-01-15T10:33:01.143Z,99037.09
2023-01-15T10:35:43.726Z,99037.19
2023-01-15T10:38:22.257Z,99035.56
2023-01-15T10:41:16.851Z,99042.47
2023-01-15T10:43:52.082Z,99036.38
2023-01-15T10:46:25.433Z,99025.47
2023-01-15T10:48:57.264Z,99028.16
2023-01-15T10:51:30.743Z,99033.03
2023-01-15T10:54:03.811Z,99030.97
2023-01-15T10:56:36.540Z,99037.53
2023-01-15T10:59:13.829Z,99048.03
2023-01-15T11:01:42.565Z,99034.88
2023-01-15T11:04:13.523Z,99023.13
2023-01-15T11:06:42.751Z,99018.91
2023-01-15T11:09:22.251Z,99018.03
2023-01-15T11:12:12.741Z,99016.41
2023-01-15T11:15:01.004Z,99021.69
2023-01-15T11:17:50.664Z,99002.97
2023-01-15T11:20:29.002Z,98998.62
2023-01-15T11:22:58.291Z,99008.69
2023-01-15T11:25:29.757Z,98998.22
2023-01-15T11:28:01.261Z,99009.94
2023-01-15T11:30:32.142Z,99014.94
2023-01-15T11:33:04.199Z,99014.56
2023-01-15T11:35:33.137Z,99027.25
2023-01-15T11:38:06.346Z,99014.41
2023-01-15T11:40:35.978Z,99009.22
2023-01-15T11:43:21.880Z,99014.53
2023-01-15T11:46:09.622Z,99004.50
2023-01-15T11:49:04.135Z,99016.69
2023-01-15T11:51:35.646Z,99021.12
2023-01-15T11:54:08.526Z,99031.16
2023-01-15T11:56:43.173Z,99020.13
2023-01-15T11:59:14.629Z,99022.75
2023-01-15T12:01:54.704Z,99021.84
2023-01-15T12:04:35.858Z,99024.38
2023-01-15T12:07:06.251Z,99037.50
2023-01-15T12:09:54.807Z,99025.44
2023-01-15T12:12:31.595Z,99020.63
2023-01-15T12:15:24.308Z,99026.34
2023-01-15T12:18:17.872Z,99031.00
2023-01-15T12:21:02.635Z,99024.22
2023-01-15T12:23:46.321Z,99009.22
2023-01-15T12:26:24.791Z,99009.50
2023-01-15T12:29:03.841Z,99003.94
2023-01-15T12:31:37.842Z,98992.94
2023-01-15T12:34:16.525Z,99005.63
2023-01-15T12:36:49.451Z,99000.22
2023-01-15T12:39:23.027Z,98986.84
2023-01-15T12:42:13.420Z,98974.72
2023-01-15T12:45:05.166Z,98971.13
2023-01-15T12:47:40.994Z,98983.50
2023-01-15T12:50:26.659Z,98975.97
2023-01-15T12:53:00.867Z,98981.25
2023-01-15T12:55:31.416Z,98991.28
2023-01-15T12:58:02.978Z,98997.38
2023-01-15T13:00:38.400Z,98991.78
2023-01-15T13:03:18.978Z,98986.50
2023-01-15T13:05:50.783Z,99001.44
2023-01-15T13:08:25.005Z,99004.84
2023-01-15T13:10:53.238Z,98989.69
2023-01-15T13:13:24.697Z,98983.66
2023-01-15T13:16:09.059Z,98989.25
2023-01-15T13:18:48.020Z,98989.41
2023-01-15T13:21:20.293Z,98999.16
2023-01-15T13:24:16.225Z,99024.28
2023-01-15T13:27:10.915Z,99008.41
2023-01-15T13:29:59.967Z,99014.06
2023-01-15T13:32:32.860Z,99011.34
2023-01-15T13:35:09.021Z,99009.25
2023-01-15T13:37:43.513Z,99006.69
2023-01-15T13:40:19.336Z,99009.16
2023-01-15T13:42:49.139Z,99002.59
2023-01-15T13:45:37.429Z,99021.88
2023-01-15T13:48:13.341Z,99039.47
2023-01-15T13:50:44.193Z,99046.84
2023-01-15T13:53:23.597Z,99052.53
2023-01-15T13:55:54.874Z,99047.44
2023-01-15T13:58:26.937Z,99046.19
2023-01-15T14:01:08.944Z,99060.75
2023-01-15T14:03:39.395Z,99052.66
2023-01-15T14:06:09.677Z,99046.53
2023-01-15T14:08:40.880Z,99034.50
2023-01-15T14:11:37.851Z,99050.34
2023-01-15T14:14:38.479Z,99039.34
2023-01-15T14:17:25.505Z,99063.28
2023-01-15T14:20:18.378Z,99075.44
2023-01-15T14:23:02.464Z,99079.53
2023-01-15T14:26:01.740Z,99073.84
2023-01-15T14:28:44.658Z,99086.53
2023-01-15T14:31:29.772Z,99092.41
2023-01-15T14:34:19.956Z,99104.31
2023-01-15T14:36:56.350Z,99121.00
2023-01-15T14:39:32.017Z,99127.28
2023-01-15T14:42:23.181Z,99126.59
2023-01-15T14:44:59.689Z,99132.44
2023-01-15T14:47:34.609Z,99127.16
2023-01-15T14:50:20.406Z,99130.06
2023-01-15T14:52:53.303Z,99128.44
2023-01-15T14:55:22.527Z,99123.66
2023-01-15T14:57:58.163Z,99121.69
2023-01-15T15:00:32.683Z,99123.66
2023-01-15T15:03:02.968Z,99128.25
2023-01-15T15:05:35.077Z,99117.13
2023-01-15T15:08:06.048Z,99114.97
2023-01-15T15:10:39.680Z,99117.00
2023-01-15T15:13:14.876Z,99112.56
2023-01-15T15:15:51.787Z,99117.69
2023-01-15T15:18:29.921Z,99118.16
2023-01-15T15:21:06.420Z,99108.44
2023-01-15T15:23:43.339Z,99101.34
2023-01-15T15:26:25.503Z,99106.50
2023-01-15T15:28:59.304Z,99117.00
2023-01-15T15:31:29.459Z,99111.56
2023-01-15T15:33:59.550Z,99109.75
2023-01-15T15:36:30.943Z,99121.34
2023-01-15T15:39:03.604Z,99123.72
2023-01-15T15:41:53.827Z,99133.84
2023-01-15T15:44:49.243Z,99137.47
2023-01-15T15:47:39.119Z,99144.31
2023-01-15T15:50:08.034Z,99153.34
2023-01-15T15:52:36.561Z,99164.06
2023-01-15T15:55:06.837Z,99164.19
2023-01-15T15:57:36.463Z,99172.38
2023-01-15T16:00:06.409Z,99169.97
2023-01-15T16:02:41.407Z,99161.53
2023-01-15T16:05:22.625Z,99158.28
2023-01-15T16:07:51.614Z,99156.00
2023-01-15T16:10:25.975Z,99159.84
2023-01-15T16:12:57.348Z,99153.97
2023-01-15T16:15:28.609Z,99149.97
2023-01-15T16:17:58.328Z,99149.72
2023-01-15T16:20:27.575Z,99149.00
2023-01-15T16:22:57.984Z,99151.41
2023-01-15T16:25:30.712Z,99141.31
2023-01-15T16:27:59.625Z,99140.59
2023-01-15T16:30:28.951Z,99147.31
2023-01-15T16:33:02.281Z,99134.94
2023-01-15T16:35:32.405Z,99146.09
2023-01-15T16:38:02.510Z,99149.13
2023-01-15T16:40:33.935Z,99138.97
2023-01-15T16:43:07.647Z,99136.59
2023-01-15T16:45:38.494Z,99147.19
2023-01-15T16:48:29.827Z,99139.25
2023-01-15T16:50:58.953Z,99146.09
2023-01-15T16:53:33.343Z,99141.25
2023-01-15T16:56:03.550Z,99149.13
2023-01-15T16:58:38.171Z,99152.94
2023-01-15T17:01:33.204Z,99166.31
2023-01-15T17:04:02.139Z,99168.00
2023-01-15T17:06:30.649Z,99163.78
2023-01-15T17:08:59.149Z,99172.09
2023-01-15T17:11:30.904Z,99161.00
2023-01-15T17:14:11.151Z,99167.75
2023-01-15T17:16:39.136Z,99152.22
2023-01-15T17:19:08.781Z,99155.50
2023-01-15T17:21:38.885Z,99156.94
2023-01-15T17:24:08.051Z,99165.03
2023-01-15T17:26:38.245Z,99157.41
2023-01-15T17:29:06.211Z,99157.66
2023-01-15T17:31:36.338Z,99164.41
2023-01-15T17:34:04.958Z,99161.75
2023-01-15T17:36:34.504Z,99164.91
2023-01-15T17:39:02.637Z,99167.41
2023-01-15T17:41:31.004Z,99165.72
2023-01-15T17:44:00.364Z,99158.56
2023-01-15T17:46:28.833Z,99158.16
2023-01-15T17:48:57.127Z,99165.84
2023-01-15T17:51:26.322Z,99168.22
2023-01-15T17:53:54.422Z,99163.91
2023-01-15T17:56:40.297Z,99164.03
2023-01-15T17:59:29.159Z,99160.81
2023-01-15T18:02:15.136Z,99160.59
2023-01-15T18:05:04.698Z,99144.91
2023-01-15T18:07:35.999Z,99145.13
2023-01-15T18:10:06.247Z,99138.28
2023-01-15T18:12:34.231Z,99135.88
2023-01-15T18:15:03.638Z,99133.81
2023-01-15T18:17:32.119Z,99129.94
2023-01-15T18:20:00.126Z,99135.16
2023-01-15T18:22:29.805Z,99131.91
2023-01-15T18:24:58.116Z,99131.69
2023-01-15T18:27:30.031Z,99136.84
2023-01-15T18:29:59.267Z,99136.72
2023-01-15T18:32:30.579Z,99131.75
2023-01-15T18:34:59.103Z,99129.72
2023-01-15T18:37:27.110Z,99120.47
2023-01-15T18:39:55.281Z,99121.75
2023-01-15T18:42:41.137Z,99118.06
2023-01-15T18:45:28.003Z,99117.94
2023-01-15T18:47:57.567Z,99101.34
2023-01-15T18:50:26.519Z,99105.12
2023-01-15T18:52:55.403Z,99090.19
2023-01-15T18:55:25.551Z,99104.00
2023-01-15T18:57:53.759Z,99108.06
2023-01-15T19:00:23.568Z,99112.91
2023-01-15T19:02:52.882Z,99113.16
2023-01-15T19:05:22.609Z,99106.25
2023-01-15T19:07:51.173Z,99108.66
2023-01-15T19:10:19.856Z,99094.13
2023-01-15T19:12:47.940Z,99108.06
2023-01-15T19:15:34.986Z,99090.78
2023-01-15T19:18:21.248Z,99107.94
2023-01-15T19:20:50.795Z,99108.91
2023-01-15T19:23:21.166Z,99104.81
2023-01-15T19:25:49.769Z,99107.81
2023-01-15T19:28:19.987Z,99114.56
2023-01-15T19:31:10.842Z,99122.72
2023-01-15T19:33:39.077Z,99125.28
2023-01-15T19:36:09.448Z,99124.44
2023-01-15T19:38:39.064Z,99141.50
2023-01-15T19:41:29.638Z,99142.31
2023-01-15T19:44:15.329Z,99144.12
2023-01-15T19:47:01.771Z,99147.63
2023-01-15T19:49:51.807Z,99146.94
2023-01-15T19:52:37.774Z,99138.13
2023-01-15T19:55:10.594Z,99144.62
2023-01-15T19:57:39.124Z,99146.78
2023-01-15T20:00:10.090Z,99145.47
2023-01-15T20:02:38.706Z,99164.03
2023-01-15T20:05:08.279Z,99168.47
2023-01-15T20:07:38.002Z,99163.19
2023-01-15T20:10:09.135Z,99159.28
2023-01-15T20:12:55.421Z,99162.91
2023-01-15T20:15:24.600Z,99166.88
2023-01-15T20:17:52.911Z,99165.81
2023-01-15T20:20:21.405Z,99168.81
2023-01-15T20:22:51.178Z,99171.38
2023-01-15T20:25:19.384Z,99173.66
2023-01-15T20:27:47.441Z,99182.09
2023-01-15T20:30:18.677Z,99161.94
2023-01-15T20:32:47.489Z,99179.25
2023-01-15T20:35:18.849Z,99166.84
2023-01-15T20:37:48.075Z,99173.59
2023-01-15T20:40:19.406Z,99170.00
2023-01-15T20:43:05.085Z,99165.31
2023-01-15T20:45:33.720Z,99169.63
2023-01-15T20:48:20.502Z,99168.78
2023-01-15T20:51:00.766Z,99173.38
2023-01-15T20:53:30.422Z,99173.09
2023-01-15T20:56:00.392Z,99179.38
2023-01-15T20:58:28.471Z,99177.25
2023-01-15T21:01:03.452Z,99162.63
2023-01-15T21:03:31.877Z,99158.53
2023-01-15T21:06:00.319Z,99160.09
2023-01-15T21:08:29.474Z,99153.00
2023-01-15T21:10:57.661Z,99170.09
2023-01-15T21:13:27.141Z,99161.63
2023-01-15T21:15:57.980Z,99170.28
2023-01-15T21:18:27.700Z,99171.78
2023-01-15T21:20:56.381Z,99177.63
2023-01-15T21:23:25.481Z,99165.53
2023-01-15T21:26:01.074Z,99163.31
2023-01-15T21:28:31.193Z,99162.84
2023-01-15T21:31:00.181Z,99160.78
2023-01-15T21:33:28.362Z,99165.13
2023-01-15T21:35:56.393Z,99165.00
2023-01-15T21:38:24.752Z,99162.31
2023-01-15T21:40:52.764Z,99164.53
2023-01-15T21:43:38.324Z,99170.97
2023-01-15T21:46:07.919Z,99173.62
2023-01-15T21:48:36.323Z,99175.78
2023-01-15T21:51:06.243Z,99176.19
2023-01-15T21:53:34.644Z,99187.81
2023-01-15T21:56:02.825Z,99186.34
2023-01-15T21:58:30.921Z,99183.47
2023-01-15T22:00:59.632Z,99185.16
2023-01-15T22:03:29.211Z,99184.16
2023-01-15T22:05:57.135Z,99182.25
2023-01-15T22:08:25.108Z,99186.44
2023-01-15T22:10:53.358Z,99190.53
2023-01-15T22:13:21.347Z,99185.63
2023-01-15T22:15:54.558Z,99182.75
2023-01-15T22:18:25.570Z,99180.94
2023-01-15T22:20:59.361Z,99175.66
2023-01-15T22:23:28.229Z,99174.81
2023-01-15T22:25:56.435Z,99174.66
2023-01-15T22:28:25.042Z,99175.63
2023-01-15T22:30:53.452Z,99173.59
2023-01-15T22:33:21.677Z,99169.13
2023-01-15T22:35:58.672Z,99168.84
2023-01-15T22:38:27.237Z,99172.66
2023-01-15T22:40:55.466Z,99178.66
2023-01-15T22:43:22.423Z,99174.06
2023-01-15T22:45:50.746Z,99174.69
2023-01-15T22:48:18.927Z,99167.72
2023-01-15T22:50:46.957Z,99167.72
2023-01-15T22:53:16.504Z,99173.34
2023-01-15T22:55:44.564Z,99168.22
2023-01-15T22:58:12.604Z,99169.63
2023-01-15T23:00:40.977Z,99166.47
2023-01-15T23:03:10.185Z,99165.34
2023-01-15T23:05:39.329Z,99165.94
2023-01-15T23:08:08.055Z,99163.34
2023-01-15T23:10:37.450Z,99174.22
2023-01-15T23:13:05.332Z,99164.94
2023-01-15T23:15:33.710Z,99168.09
2023-01-15T23:18:01.727Z,99162.16
2023-01-15T23:20:29.757Z,99164.25
2023-01-15T23:22:58.117Z,99161.44
2023-01-15T23:25:26.104Z,99156.03
2023-01-15T23:27:55.496Z,99156.16
2023-01-15T23:30:24.113Z,99165.44
2023-01-15T23:32:52.545Z,99160.16
2023-01-15T23:35:21.199Z,99159.78
2023-01-15T23:37:49.608Z,99168.94
2023-01-15T23:40:17.972Z,99162.94
2023-01-15T23:43:03.596Z,99167.38
2023-01-15T23:45:53.748Z,99158.84
2023-01-15T23:48:21.718Z,99160.84
2023-01-15T23:50:49.989Z,99158.97
2023-01-15T23:53:17.949Z,99158.00
2023-01-15T23:55:45.929Z,99157.16
2023-01-15T23:58:14.202Z,99151.88
